sensor_id;sensor_type;location;lat;lon;timestamp;P1;durP1;ratioP1;P2;durP2;ratioP2
39540;SDS011;25219;52.244;21.006;2023-05-16T00:02:02;6.37;;;3.87;;
39540;SDS011;25219;52.244;21.006;2023-05-16T00:04:27;5.70;;;4.00;;
39540;SDS011;25219;52.244;21.006;2023-05-16T00:06:53;5.25;;;3.92;;
39540;SDS011;25219;52.244;21.006;2023-05-16T00:09:18;4.45;;;3.60;;
39540;SDS011;25219;52.244;21.006;2023-05-16T00:11:44;5.88;;;4.38;;
39540;SDS011;25219;52.244;21.006;2023-05-16T00:14:10;6.65;;;4.28;;
39540;SDS011;25219;52.244;21.006;2023-05-16T00:16:35;8.02;;;4.40;;
39540;SDS011;25219;52.244;21.006;2023-05-16T00:19:01;6.22;;;4.20;;
39540;SDS011;25219;52.244;21.006;2023-05-16T00:21:26;6.30;;;4.57;;
39540;SDS011;25219;52.244;21.006;2023-05-16T00:23:52;5.10;;;4.43;;
39540;SDS011;25219;52.244;21.006;2023-05-16T00:26:17;8.37;;;4.90;;
39540;SDS011;25219;52.244;21.006;2023-05-16T00:28:42;6.00;;;4.90;;
39540;SDS011;25219;52.244;21.006;2023-05-16T00:31:08;6.88;;;4.63;;
39540;SDS011;25219;52.244;21.006;2023-05-16T00:33:33;5.60;;;4.40;;
39540;SDS011;25219;52.244;21.006;2023-05-16T00:35:58;6.03;;;4.93;;
39540;SDS011;25219;52.244;21.006;2023-05-16T00:38:24;6.70;;;5.07;;
39540;SDS011;25219;52.244;21.006;2023-05-16T00:40:50;6.00;;;4.55;;
39540;SDS011;25219;52.244;21.006;2023-05-16T00:43:15;6.05;;;5.00;;
39540;SDS011;25219;52.244;21.006;2023-05-16T00:45:40;13.20;;;6.63;;
39540;SDS011;25219;52.244;21.006;2023-05-16T00:48:05;6.77;;;5.10;;
39540;SDS011;25219;52.244;21.006;2023-05-16T00:50:32;5.93;;;4.82;;
39540;SDS011;25219;52.244;21.006;2023-05-16T00:52:57;5.20;;;4.70;;
39540;SDS011;25219;52.244;21.006;2023-05-16T00:55:22;6.70;;;4.90;;
39540;SDS011;25219;52.244;21.006;2023-05-16T00:57:48;5.78;;;4.80;;
39540;SDS011;25219;52.244;21.006;2023-05-16T01:00:14;7.30;;;5.57;;
39540;SDS011;25219;52.244;21.006;2023-05-16T01:02:39;8.05;;;5.45;;
39540;SDS011;25219;52.244;21.006;2023-05-16T01:05:05;9.43;;;5.97;;
39540;SDS011;25219;52.244;21.006;2023-05-16T01:07:32;7.13;;;5.32;;
39540;SDS011;25219;52.244;21.006;2023-05-16T01:09:57;9.50;;;6.45;;
39540;SDS011;25219;52.244;21.006;2023-05-16T01:12:26;8.63;;;5.63;;
39540;SDS011;25219;52.244;21.006;2023-05-16T01:15:13;12.85;;;5.65;;
39540;SDS011;25219;52.244;21.006;2023-05-16T01:17:56;6.18;;;5.30;;
39540;SDS011;25219;52.244;21.006;2023-05-16T01:23:03;6.63;;;5.75;;
39540;SDS011;25219;52.244;21.006;2023-05-16T01:28:01;8.95;;;6.30;;
39540;SDS011;25219;52.244;21.006;2023-05-16T01:30:30;8.40;;;5.97;;
39540;SDS011;25219;52.244;21.006;2023-05-16T01:32:56;7.72;;;5.68;;
39540;SDS011;25219;52.244;21.006;2023-05-16T01:35:21;9.03;;;6.17;;
39540;SDS011;25219;52.244;21.006;2023-05-16T01:37:53;8.38;;;5.65;;
39540;SDS011;25219;52.244;21.006;2023-05-16T01:40:28;7.75;;;5.40;;
39540;SDS011;25219;52.244;21.006;2023-05-16T01:42:54;13.00;;;6.20;;
39540;SDS011;25219;52.244;21.006;2023-05-16T01:45:24;9.27;;;6.45;;
39540;SDS011;25219;52.244;21.006;2023-05-16T01:48:03;10.75;;;6.57;;
39540;SDS011;25219;52.244;21.006;2023-05-16T01:50:30;9.10;;;6.38;;
39540;SDS011;25219;52.244;21.006;2023-05-16T01:53:02;8.23;;;6.18;;
39540;SDS011;25219;52.244;21.006;2023-05-16T01:55:44;9.23;;;6.00;;
39540;SDS011;25219;52.244;21.006;2023-05-16T01:58:10;7.75;;;6.15;;
39540;SDS011;25219;52.244;21.006;2023-05-16T02:00:36;7.18;;;5.75;;
39540;SDS011;25219;52.244;21.006;2023-05-16T02:03:01;12.05;;;5.90;;
39540;SDS011;25219;52.244;21.006;2023-05-16T02:05:26;7.20;;;5.53;;
39540;SDS011;25219;52.244;21.006;2023-05-16T02:07:52;8.33;;;6.13;;
39540;SDS011;25219;52.244;21.006;2023-05-16T02:10:17;7.47;;;5.50;;
39540;SDS011;25219;52.244;21.006;2023-05-16T02:12:43;7.70;;;6.60;;
39540;SDS011;25219;52.244;21.006;2023-05-16T02:15:08;8.77;;;6.53;;
39540;SDS011;25219;52.244;21.006;2023-05-16T02:17:34;10.68;;;6.68;;
39540;SDS011;25219;52.244;21.006;2023-05-16T02:19:59;7.97;;;5.57;;
39540;SDS011;25219;52.244;21.006;2023-05-16T02:22:30;7.53;;;6.70;;
39540;SDS011;25219;52.244;21.006;2023-05-16T02:24:57;10.07;;;6.45;;
39540;SDS011;25219;52.244;21.006;2023-05-16T02:27:22;9.57;;;6.97;;
39540;SDS011;25219;52.244;21.006;2023-05-16T02:29:47;9.07;;;6.20;;
39540;SDS011;25219;52.244;21.006;2023-05-16T02:32:12;9.93;;;7.03;;
39540;SDS011;25219;52.244;21.006;2023-05-16T02:34:37;9.13;;;6.00;;
39540;SDS011;25219;52.244;21.006;2023-05-16T02:37:03;10.50;;;6.00;;
39540;SDS011;25219;52.244;21.006;2023-05-16T02:39:29;10.02;;;6.65;;
39540;SDS011;25219;52.244;21.006;2023-05-16T02:41:54;12.05;;;6.13;;
39540;SDS011;25219;52.244;21.006;2023-05-16T02:44:19;9.30;;;6.30;;
39540;SDS011;25219;52.244;21.006;2023-05-16T02:46:44;6.63;;;5.77;;
39540;SDS011;25219;52.244;21.006;2023-05-16T02:49:10;6.82;;;5.43;;
39540;SDS011;25219;52.244;21.006;2023-05-16T02:51:35;6.80;;;5.90;;
39540;SDS011;25219;52.244;21.006;2023-05-16T02:54:00;9.52;;;6.40;;
39540;SDS011;25219;52.244;21.006;2023-05-16T02:56:26;9.43;;;6.73;;
39540;SDS011;25219;52.244;21.006;2023-05-16T02:58:52;10.45;;;6.30;;
39540;SDS011;25219;52.244;21.006;2023-05-16T03:01:17;9.23;;;6.05;;
39540;SDS011;25219;52.244;21.006;2023-05-16T03:03:42;8.25;;;6.85;;
39540;SDS011;25219;52.244;21.006;2023-05-16T03:06:07;9.00;;;6.43;;
39540;SDS011;25219;52.244;21.006;2023-05-16T03:08:33;7.53;;;5.60;;
39540;SDS011;25219;52.244;21.006;2023-05-16T03:10:59;13.13;;;6.22;;
39540;SDS011;25219;52.244;21.006;2023-05-16T03:13:24;7.07;;;6.30;;
39540;SDS011;25219;52.244;21.006;2023-05-16T03:15:50;7.38;;;6.00;;
39540;SDS011;25219;52.244;21.006;2023-05-16T03:18:15;10.60;;;6.38;;
39540;SDS011;25219;52.244;21.006;2023-05-16T03:20:40;6.90;;;5.63;;
39540;SDS011;25219;52.244;21.006;2023-05-16T03:23:06;6.93;;;5.43;;
39540;SDS011;25219;52.244;21.006;2023-05-16T03:25:35;8.07;;;6.85;;
39540;SDS011;25219;52.244;21.006;2023-05-16T03:28:06;10.13;;;6.60;;
39540;SDS011;25219;52.244;21.006;2023-05-16T03:30:32;11.48;;;6.50;;
39540;SDS011;25219;52.244;21.006;2023-05-16T03:32:57;6.07;;;5.47;;
39540;SDS011;25219;52.244;21.006;2023-05-16T03:35:22;9.43;;;5.57;;
39540;SDS011;25219;52.244;21.006;2023-05-16T03:37:48;7.65;;;6.13;;
39540;SDS011;25219;52.244;21.006;2023-05-16T03:40:13;9.73;;;6.27;;
39540;SDS011;25219;52.244;21.006;2023-05-16T03:42:39;6.72;;;5.90;;
39540;SDS011;25219;52.244;21.006;2023-05-16T03:45:04;7.73;;;6.13;;
39540;SDS011;25219;52.244;21.006;2023-05-16T03:47:30;7.43;;;5.93;;
39540;SDS011;25219;52.244;21.006;2023-05-16T03:49:55;6.20;;;5.38;;
39540;SDS011;25219;52.244;21.006;2023-05-16T03:52:21;6.68;;;5.85;;
39540;SDS011;25219;52.244;21.006;2023-05-16T03:54:46;9.50;;;6.37;;
39540;SDS011;25219;52.244;21.006;2023-05-16T03:57:12;8.00;;;6.10;;
39540;SDS011;25219;52.244;21.006;2023-05-16T03:59:37;15.50;;;6.80;;
39540;SDS011;25219;52.244;21.006;2023-05-16T04:02:03;7.97;;;6.10;;
39540;SDS011;25219;52.244;21.006;2023-05-16T04:04:28;7.68;;;6.50;;
39540;SDS011;25219;52.244;21.006;2023-05-16T04:06:53;8.70;;;6.10;;
39540;SDS011;25219;52.244;21.006;2023-05-16T04:09:18;7.37;;;6.00;;
39540;SDS011;25219;52.244;21.006;2023-05-16T04:11:44;9.33;;;7.03;;
39540;SDS011;25219;52.244;21.006;2023-05-16T04:14:09;7.97;;;6.63;;
39540;SDS011;25219;52.244;21.006;2023-05-16T04:16:35;9.00;;;6.47;;
39540;SDS011;25219;52.244;21.006;2023-05-16T04:19:00;9.60;;;7.10;;
39540;SDS011;25219;52.244;21.006;2023-05-16T04:21:25;10.80;;;7.07;;
39540;SDS011;25219;52.244;21.006;2023-05-16T04:23:50;9.27;;;6.50;;
39540;SDS011;25219;52.244;21.006;2023-05-16T04:26:15;8.68;;;6.70;;
39540;SDS011;25219;52.244;21.006;2023-05-16T04:28:41;8.20;;;6.50;;
39540;SDS011;25219;52.244;21.006;2023-05-16T04:31:06;10.23;;;7.33;;
39540;SDS011;25219;52.244;21.006;2023-05-16T04:33:32;8.35;;;6.70;;
39540;SDS011;25219;52.244;21.006;2023-05-16T04:35:57;9.80;;;6.72;;
39540;SDS011;25219;52.244;21.006;2023-05-16T04:38:23;8.75;;;7.18;;
39540;SDS011;25219;52.244;21.006;2023-05-16T04:40:48;7.57;;;6.33;;
39540;SDS011;25219;52.244;21.006;2023-05-16T04:43:14;10.55;;;7.22;;
39540;SDS011;25219;52.244;21.006;2023-05-16T04:45:40;9.88;;;7.30;;
39540;SDS011;25219;52.244;21.006;2023-05-16T04:48:06;10.55;;;7.50;;
39540;SDS011;25219;52.244;21.006;2023-05-16T04:50:32;10.20;;;7.27;;
39540;SDS011;25219;52.244;21.006;2023-05-16T04:52:57;7.93;;;7.00;;
39540;SDS011;25219;52.244;21.006;2023-05-16T04:55:22;8.95;;;6.32;;
39540;SDS011;25219;52.244;21.006;2023-05-16T04:57:47;7.33;;;6.00;;
39540;SDS011;25219;52.244;21.006;2023-05-16T05:00:12;8.67;;;5.90;;
39540;SDS011;25219;52.244;21.006;2023-05-16T05:02:38;12.27;;;6.32;;
39540;SDS011;25219;52.244;21.006;2023-05-16T05:05:04;7.53;;;6.05;;
39540;SDS011;25219;52.244;21.006;2023-05-16T05:07:29;8.10;;;6.68;;
39540;SDS011;25219;52.244;21.006;2023-05-16T05:09:55;9.50;;;6.43;;
39540;SDS011;25219;52.244;21.006;2023-05-16T05:12:20;9.00;;;5.90;;
39540;SDS011;25219;52.244;21.006;2023-05-16T05:14:45;8.52;;;6.10;;
39540;SDS011;25219;52.244;21.006;2023-05-16T05:17:11;11.10;;;7.37;;
39540;SDS011;25219;52.244;21.006;2023-05-16T05:19:36;11.30;;;6.30;;
39540;SDS011;25219;52.244;21.006;2023-05-16T05:22:01;7.77;;;6.00;;
39540;SDS011;25219;52.244;21.006;2023-05-16T05:24:26;8.30;;;6.30;;
39540;SDS011;25219;52.244;21.006;2023-05-16T05:26:52;8.13;;;5.97;;
39540;SDS011;25219;52.244;21.006;2023-05-16T05:29:17;8.02;;;6.20;;
39540;SDS011;25219;52.244;21.006;2023-05-16T05:31:42;13.80;;;7.13;;
39540;SDS011;25219;52.244;21.006;2023-05-16T05:34:07;9.73;;;6.53;;
39540;SDS011;25219;52.244;21.006;2023-05-16T05:36:32;9.07;;;5.93;;
39540;SDS011;25219;52.244;21.006;2023-05-16T05:38:58;8.05;;;5.82;;
39540;SDS011;25219;52.244;21.006;2023-05-16T05:41:23;6.87;;;6.17;;
39540;SDS011;25219;52.244;21.006;2023-05-16T05:43:48;11.57;;;6.07;;
39540;SDS011;25219;52.244;21.006;2023-05-16T05:46:13;8.90;;;6.20;;
39540;SDS011;25219;52.244;21.006;2023-05-16T05:48:38;7.00;;;5.87;;
39540;SDS011;25219;52.244;21.006;2023-05-16T05:51:04;10.73;;;6.27;;
39540;SDS011;25219;52.244;21.006;2023-05-16T05:53:29;9.70;;;6.30;;
39540;SDS011;25219;52.244;21.006;2023-05-16T05:55:54;7.33;;;6.27;;
39540;SDS011;25219;52.244;21.006;2023-05-16T05:58:20;14.13;;;9.88;;
39540;SDS011;25219;52.244;21.006;2023-05-16T06:00:45;12.20;;;8.25;;
39540;SDS011;25219;52.244;21.006;2023-05-16T06:03:10;8.27;;;6.67;;
39540;SDS011;25219;52.244;21.006;2023-05-16T06:05:35;14.00;;;7.20;;
39540;SDS011;25219;52.244;21.006;2023-05-16T06:08:01;12.53;;;6.77;;
39540;SDS011;25219;52.244;21.006;2023-05-16T06:10:26;9.53;;;6.50;;
39540;SDS011;25219;52.244;21.006;2023-05-16T06:12:51;8.40;;;6.88;;
39540;SDS011;25219;52.244;21.006;2023-05-16T06:15:16;7.37;;;6.33;;
39540;SDS011;25219;52.244;21.006;2023-05-16T06:17:42;9.57;;;7.47;;
39540;SDS011;25219;52.244;21.006;2023-05-16T06:20:07;9.20;;;6.53;;
39540;SDS011;25219;52.244;21.006;2023-05-16T06:22:32;9.32;;;7.15;;
39540;SDS011;25219;52.244;21.006;2023-05-16T06:24:57;11.00;;;7.23;;
39540;SDS011;25219;52.244;21.006;2023-05-16T06:27:23;8.05;;;6.88;;
39540;SDS011;25219;52.244;21.006;2023-05-16T06:29:48;11.30;;;6.27;;
39540;SDS011;25219;52.244;21.006;2023-05-16T06:32:13;7.90;;;7.00;;
39540;SDS011;25219;52.244;21.006;2023-05-16T06:34:38;11.97;;;7.20;;
39540;SDS011;25219;52.244;21.006;2023-05-16T06:37:04;9.47;;;6.80;;
39540;SDS011;25219;52.244;21.006;2023-05-16T06:39:29;9.70;;;7.72;;
39540;SDS011;25219;52.244;21.006;2023-05-16T06:41:54;10.93;;;8.13;;
39540;SDS011;25219;52.244;21.006;2023-05-16T06:44:21;9.50;;;7.07;;
39540;SDS011;25219;52.244;21.006;2023-05-16T06:46:46;10.40;;;7.85;;
39540;SDS011;25219;52.244;21.006;2023-05-16T06:49:11;11.07;;;7.00;;
39540;SDS011;25219;52.244;21.006;2023-05-16T06:51:37;12.60;;;7.13;;
39540;SDS011;25219;52.244;21.006;2023-05-16T06:54:02;8.30;;;7.50;;
39540;SDS011;25219;52.244;21.006;2023-05-16T06:56:28;12.35;;;7.60;;
39540;SDS011;25219;52.244;21.006;2023-05-16T06:58:53;8.40;;;6.78;;
39540;SDS011;25219;52.244;21.006;2023-05-16T07:01:18;9.00;;;6.43;;
39540;SDS011;25219;52.244;21.006;2023-05-16T07:03:43;8.40;;;7.10;;
39540;SDS011;25219;52.244;21.006;2023-05-16T07:06:09;8.90;;;6.63;;
39540;SDS011;25219;52.244;21.006;2023-05-16T07:08:34;8.47;;;6.70;;
39540;SDS011;25219;52.244;21.006;2023-05-16T07:11:00;9.55;;;6.95;;
39540;SDS011;25219;52.244;21.006;2023-05-16T07:13:26;11.40;;;6.50;;
39540;SDS011;25219;52.244;21.006;2023-05-16T07:15:51;8.53;;;6.97;;
39540;SDS011;25219;52.244;21.006;2023-05-16T07:18:16;8.63;;;6.57;;
39540;SDS011;25219;52.244;21.006;2023-05-16T07:20:41;9.10;;;6.73;;
39540;SDS011;25219;52.244;21.006;2023-05-16T07:23:07;7.67;;;6.20;;
39540;SDS011;25219;52.244;21.006;2023-05-16T07:25:32;7.63;;;6.57;;
39540;SDS011;25219;52.244;21.006;2023-05-16T07:27:57;7.00;;;6.18;;
39540;SDS011;25219;52.244;21.006;2023-05-16T07:30:23;8.15;;;6.32;;
39540;SDS011;25219;52.244;21.006;2023-05-16T07:32:48;9.33;;;5.87;;
39540;SDS011;25219;52.244;21.006;2023-05-16T07:35:14;12.20;;;5.93;;
39540;SDS011;25219;52.244;21.006;2023-05-16T07:37:39;5.67;;;5.00;;
39540;SDS011;25219;52.244;21.006;2023-05-16T07:40:06;5.68;;;4.15;;
39540;SDS011;25219;52.244;21.006;2023-05-16T07:42:32;6.13;;;4.60;;
39540;SDS011;25219;52.244;21.006;2023-05-16T07:44:57;6.22;;;4.03;;
39540;SDS011;25219;52.244;21.006;2023-05-16T07:47:22;4.37;;;3.70;;
39540;SDS011;25219;52.244;21.006;2023-05-16T07:49:47;4.37;;;3.27;;
39540;SDS011;25219;52.244;21.006;2023-05-16T07:52:13;4.53;;;3.77;;
39540;SDS011;25219;52.244;21.006;2023-05-16T07:54:38;4.53;;;4.07;;
39540;SDS011;25219;52.244;21.006;2023-05-16T07:57:03;7.00;;;3.83;;
39540;SDS011;25219;52.244;21.006;2023-05-16T07:59:28;5.18;;;4.05;;
39540;SDS011;25219;52.244;21.006;2023-05-16T08:01:54;6.23;;;4.03;;
39540;SDS011;25219;52.244;21.006;2023-05-16T08:04:20;10.82;;;4.30;;
39540;SDS011;25219;52.244;21.006;2023-05-16T08:06:45;4.90;;;4.15;;
39540;SDS011;25219;52.244;21.006;2023-05-16T08:09:11;4.13;;;3.73;;
39540;SDS011;25219;52.244;21.006;2023-05-16T08:11:36;5.23;;;3.60;;
39540;SDS011;25219;52.244;21.006;2023-05-16T08:14:01;3.38;;;3.08;;
39540;SDS011;25219;52.244;21.006;2023-05-16T08:16:27;4.25;;;3.10;;
39540;SDS011;25219;52.244;21.006;2023-05-16T08:18:52;7.77;;;4.13;;
39540;SDS011;25219;52.244;21.006;2023-05-16T08:21:17;18.93;;;11.40;;
39540;SDS011;25219;52.244;21.006;2023-05-16T08:23:42;4.17;;;3.20;;
39540;SDS011;25219;52.244;21.006;2023-05-16T08:26:07;3.08;;;2.60;;
39540;SDS011;25219;52.244;21.006;2023-05-16T08:28:33;3.87;;;2.80;;
39540;SDS011;25219;52.244;21.006;2023-05-16T08:30:58;3.85;;;3.03;;
39540;SDS011;25219;52.244;21.006;2023-05-16T08:33:23;3.67;;;2.80;;
39540;SDS011;25219;52.244;21.006;2023-05-16T08:35:49;3.28;;;2.97;;
39540;SDS011;25219;52.244;21.006;2023-05-16T08:38:16;4.25;;;2.90;;
39540;SDS011;25219;52.244;21.006;2023-05-16T08:40:41;2.90;;;2.50;;
39540;SDS011;25219;52.244;21.006;2023-05-16T08:43:07;3.95;;;2.80;;
39540;SDS011;25219;52.244;21.006;2023-05-16T08:45:32;4.68;;;2.92;;
39540;SDS011;25219;52.244;21.006;2023-05-16T08:47:59;3.10;;;2.80;;
39540;SDS011;25219;52.244;21.006;2023-05-16T08:50:25;5.35;;;3.13;;
39540;SDS011;25219;52.244;21.006;2023-05-16T08:52:53;2.78;;;2.30;;
39540;SDS011;25219;52.244;21.006;2023-05-16T08:55:18;2.92;;;2.53;;
39540;SDS011;25219;52.244;21.006;2023-05-16T08:57:44;3.65;;;2.08;;
39540;SDS011;25219;52.244;21.006;2023-05-16T09:00:09;2.88;;;2.35;;
39540;SDS011;25219;52.244;21.006;2023-05-16T09:02:38;3.63;;;2.50;;
39540;SDS011;25219;52.244;21.006;2023-05-16T09:05:04;3.80;;;2.40;;
39540;SDS011;25219;52.244;21.006;2023-05-16T09:07:30;2.75;;;2.55;;
39540;SDS011;25219;52.244;21.006;2023-05-16T09:09:55;4.33;;;3.00;;
39540;SDS011;25219;52.244;21.006;2023-05-16T09:12:20;2.60;;;2.23;;
39540;SDS011;25219;52.244;21.006;2023-05-16T09:14:46;4.10;;;2.70;;
39540;SDS011;25219;52.244;21.006;2023-05-16T09:17:11;4.33;;;2.70;;
39540;SDS011;25219;52.244;21.006;2023-05-16T09:19:40;3.40;;;2.72;;
39540;SDS011;25219;52.244;21.006;2023-05-16T09:22:07;2.72;;;2.53;;
39540;SDS011;25219;52.244;21.006;2023-05-16T09:24:35;2.20;;;2.00;;
39540;SDS011;25219;52.244;21.006;2023-05-16T09:27:11;2.70;;;2.00;;
39540;SDS011;25219;52.244;21.006;2023-05-16T09:29:43;2.22;;;1.90;;
39540;SDS011;25219;52.244;21.006;2023-05-16T09:32:10;2.70;;;2.20;;
39540;SDS011;25219;52.244;21.006;2023-05-16T09:34:37;2.55;;;2.03;;
39540;SDS011;25219;52.244;21.006;2023-05-16T09:37:02;3.17;;;1.90;;
39540;SDS011;25219;52.244;21.006;2023-05-16T09:39:27;2.28;;;1.90;;
39540;SDS011;25219;52.244;21.006;2023-05-16T09:41:52;2.45;;;1.77;;
39540;SDS011;25219;52.244;21.006;2023-05-16T09:44:18;3.58;;;2.08;;
39540;SDS011;25219;52.244;21.006;2023-05-16T09:46:43;2.50;;;1.93;;
39540;SDS011;25219;52.244;21.006;2023-05-16T09:49:12;2.17;;;1.63;;
39540;SDS011;25219;52.244;21.006;2023-05-16T09:51:38;3.15;;;1.80;;
39540;SDS011;25219;52.244;21.006;2023-05-16T09:54:06;1.70;;;1.60;;
39540;SDS011;25219;52.244;21.006;2023-05-16T09:56:31;2.15;;;1.63;;
39540;SDS011;25219;52.244;21.006;2023-05-16T09:58:56;2.13;;;1.70;;
39540;SDS011;25219;52.244;21.006;2023-05-16T10:01:22;3.03;;;2.07;;
39540;SDS011;25219;52.244;21.006;2023-05-16T10:03:47;3.55;;;2.35;;
39540;SDS011;25219;52.244;21.006;2023-05-16T10:06:12;3.08;;;2.08;;
39540;SDS011;25219;52.244;21.006;2023-05-16T10:08:38;7.35;;;2.15;;
39540;SDS011;25219;52.244;21.006;2023-05-16T10:11:05;2.15;;;1.83;;
39540;SDS011;25219;52.244;21.006;2023-05-16T10:13:32;4.82;;;2.40;;
39540;SDS011;25219;52.244;21.006;2023-05-16T10:15:58;4.20;;;1.83;;
39540;SDS011;25219;52.244;21.006;2023-05-16T10:18:30;5.78;;;2.00;;
39540;SDS011;25219;52.244;21.006;2023-05-16T10:20:57;3.22;;;1.85;;
39540;SDS011;25219;52.244;21.006;2023-05-16T10:23:24;3.05;;;1.67;;
39540;SDS011;25219;52.244;21.006;2023-05-16T10:25:50;5.18;;;1.90;;
39540;SDS011;25219;52.244;21.006;2023-05-16T10:28:15;2.42;;;1.83;;
39540;SDS011;25219;52.244;21.006;2023-05-16T10:30:41;3.72;;;1.88;;
39540;SDS011;25219;52.244;21.006;2023-05-16T10:33:08;2.38;;;1.58;;
39540;SDS011;25219;52.244;21.006;2023-05-16T10:35:34;2.20;;;1.98;;
39540;SDS011;25219;52.244;21.006;2023-05-16T10:37:59;2.20;;;2.00;;
39540;SDS011;25219;52.244;21.006;2023-05-16T10:40:25;2.30;;;2.10;;
39540;SDS011;25219;52.244;21.006;2023-05-16T10:42:59;1.92;;;1.63;;
39540;SDS011;25219;52.244;21.006;2023-05-16T10:45:25;2.08;;;1.48;;
39540;SDS011;25219;52.244;21.006;2023-05-16T10:47:51;3.40;;;2.10;;
39540;SDS011;25219;52.244;21.006;2023-05-16T10:50:30;3.58;;;1.90;;
39540;SDS011;25219;52.244;21.006;2023-05-16T10:52:55;4.80;;;1.83;;
39540;SDS011;25219;52.244;21.006;2023-05-16T10:55:20;2.42;;;1.90;;
39540;SDS011;25219;52.244;21.006;2023-05-16T10:57:45;2.73;;;1.83;;
39540;SDS011;25219;52.244;21.006;2023-05-16T11:00:12;5.38;;;1.83;;
39540;SDS011;25219;52.244;21.006;2023-05-16T11:02:45;3.13;;;1.77;;
39540;SDS011;25219;52.244;21.006;2023-05-16T11:05:12;4.03;;;1.50;;
39540;SDS011;25219;52.244;21.006;2023-05-16T11:07:37;1.83;;;1.50;;
39540;SDS011;25219;52.244;21.006;2023-05-16T11:10:06;3.67;;;1.60;;
39540;SDS011;25219;52.244;21.006;2023-05-16T11:12:42;1.90;;;1.45;;
39540;SDS011;25219;52.244;21.006;2023-05-16T11:17:47;3.60;;;1.60;;
39540;SDS011;25219;52.244;21.006;2023-05-16T11:20:25;2.63;;;1.40;;
39540;SDS011;25219;52.244;21.006;2023-05-16T11:22:51;2.17;;;1.58;;
39540;SDS011;25219;52.244;21.006;2023-05-16T11:25:36;2.42;;;1.70;;
39540;SDS011;25219;52.244;21.006;2023-05-16T11:28:05;2.10;;;1.52;;
39540;SDS011;25219;52.244;21.006;2023-05-16T11:30:32;3.45;;;1.73;;
39540;SDS011;25219;52.244;21.006;2023-05-16T11:32:57;4.13;;;1.63;;
39540;SDS011;25219;52.244;21.006;2023-05-16T11:35:22;2.27;;;1.40;;
39540;SDS011;25219;52.244;21.006;2023-05-16T11:37:47;2.87;;;1.70;;
39540;SDS011;25219;52.244;21.006;2023-05-16T11:40:13;4.20;;;1.63;;
39540;SDS011;25219;52.244;21.006;2023-05-16T11:42:42;2.65;;;1.80;;
39540;SDS011;25219;52.244;21.006;2023-05-16T11:45:09;3.10;;;1.60;;
39540;SDS011;25219;52.244;21.006;2023-05-16T11:47:35;1.90;;;1.75;;
39540;SDS011;25219;52.244;21.006;2023-05-16T11:50:02;3.22;;;1.85;;
39540;SDS011;25219;52.244;21.006;2023-05-16T11:52:28;2.90;;;1.83;;
39540;SDS011;25219;52.244;21.006;2023-05-16T11:54:53;4.10;;;1.98;;
39540;SDS011;25219;52.244;21.006;2023-05-16T11:57:19;2.38;;;1.60;;
39540;SDS011;25219;52.244;21.006;2023-05-16T11:59:45;1.85;;;1.67;;
39540;SDS011;25219;52.244;21.006;2023-05-16T12:02:10;6.93;;;2.20;;
39540;SDS011;25219;52.244;21.006;2023-05-16T12:04:36;3.07;;;2.10;;
39540;SDS011;25219;52.244;21.006;2023-05-16T12:07:02;5.45;;;3.22;;
39540;SDS011;25219;52.244;21.006;2023-05-16T12:09:28;2.30;;;2.10;;
39540;SDS011;25219;52.244;21.006;2023-05-16T12:11:53;3.72;;;2.10;;
39540;SDS011;25219;52.244;21.006;2023-05-16T12:14:19;1.60;;;1.50;;
39540;SDS011;25219;52.244;21.006;2023-05-16T12:16:44;3.92;;;1.98;;
39540;SDS011;25219;52.244;21.006;2023-05-16T12:19:10;2.97;;;2.15;;
39540;SDS011;25219;52.244;21.006;2023-05-16T12:21:36;5.50;;;1.90;;
39540;SDS011;25219;52.244;21.006;2023-05-16T12:24:01;6.72;;;2.00;;
39540;SDS011;25219;52.244;21.006;2023-05-16T12:26:28;1.83;;;1.67;;
39540;SDS011;25219;52.244;21.006;2023-05-16T12:29:01;1.88;;;1.70;;
39540;SDS011;25219;52.244;21.006;2023-05-16T12:31:30;3.55;;;1.88;;
39540;SDS011;25219;52.244;21.006;2023-05-16T12:33:56;2.65;;;1.80;;
39540;SDS011;25219;52.244;21.006;2023-05-16T12:36:21;1.90;;;1.45;;
39540;SDS011;25219;52.244;21.006;2023-05-16T12:38:47;2.90;;;1.77;;
39540;SDS011;25219;52.244;21.006;2023-05-16T12:41:21;2.37;;;1.70;;
39540;SDS011;25219;52.244;21.006;2023-05-16T12:43:47;4.22;;;2.30;;
39540;SDS011;25219;52.244;21.006;2023-05-16T12:46:12;3.25;;;2.05;;
39540;SDS011;25219;52.244;21.006;2023-05-16T12:48:38;4.05;;;2.17;;
39540;SDS011;25219;52.244;21.006;2023-05-16T12:51:16;5.43;;;2.38;;
39540;SDS011;25219;52.244;21.006;2023-05-16T12:53:42;3.97;;;2.20;;
39540;SDS011;25219;52.244;21.006;2023-05-16T12:56:09;2.75;;;1.80;;
39540;SDS011;25219;52.244;21.006;2023-05-16T12:58:35;3.65;;;1.90;;
39540;SDS011;25219;52.244;21.006;2023-05-16T13:01:01;2.75;;;2.03;;
39540;SDS011;25219;52.244;21.006;2023-05-16T13:03:27;3.10;;;1.83;;
39540;SDS011;25219;52.244;21.006;2023-05-16T13:05:52;4.97;;;1.70;;
39540;SDS011;25219;52.244;21.006;2023-05-16T13:08:18;6.37;;;2.23;;
39540;SDS011;25219;52.244;21.006;2023-05-16T13:10:43;2.63;;;2.13;;
39540;SDS011;25219;52.244;21.006;2023-05-16T13:13:08;2.30;;;1.87;;
39540;SDS011;25219;52.244;21.006;2023-05-16T13:15:33;6.37;;;2.20;;
39540;SDS011;25219;52.244;21.006;2023-05-16T13:17:58;3.30;;;2.33;;
39540;SDS011;25219;52.244;21.006;2023-05-16T13:20:24;3.80;;;2.40;;
39540;SDS011;25219;52.244;21.006;2023-05-16T13:22:49;2.60;;;2.40;;
39540;SDS011;25219;52.244;21.006;2023-05-16T13:25:15;2.83;;;1.85;;
39540;SDS011;25219;52.244;21.006;2023-05-16T13:27:40;2.72;;;2.30;;
39540;SDS011;25219;52.244;21.006;2023-05-16T13:30:05;2.65;;;2.17;;
39540;SDS011;25219;52.244;21.006;2023-05-16T13:32:31;3.17;;;2.05;;
39540;SDS011;25219;52.244;21.006;2023-05-16T13:34:56;5.40;;;2.20;;
39540;SDS011;25219;52.244;21.006;2023-05-16T13:37:21;3.40;;;2.20;;
39540;SDS011;25219;52.244;21.006;2023-05-16T13:39:50;3.25;;;2.15;;
39540;SDS011;25219;52.244;21.006;2023-05-16T13:42:15;2.20;;;1.98;;
39540;SDS011;25219;52.244;21.006;2023-05-16T13:44:40;3.75;;;2.80;;
39540;SDS011;25219;52.244;21.006;2023-05-16T13:47:06;3.47;;;1.90;;
39540;SDS011;25219;52.244;21.006;2023-05-16T13:49:32;2.20;;;1.92;;
39540;SDS011;25219;52.244;21.006;2023-05-16T13:51:57;3.03;;;2.03;;
39540;SDS011;25219;52.244;21.006;2023-05-16T13:54:22;2.25;;;1.73;;
39540;SDS011;25219;52.244;21.006;2023-05-16T13:56:48;4.00;;;1.63;;
39540;SDS011;25219;52.244;21.006;2023-05-16T13:59:13;2.70;;;1.50;;
39540;SDS011;25219;52.244;21.006;2023-05-16T14:01:38;2.28;;;1.60;;
39540;SDS011;25219;52.244;21.006;2023-05-16T14:04:04;6.97;;;1.45;;
39540;SDS011;25219;52.244;21.006;2023-05-16T14:06:29;2.38;;;1.67;;
39540;SDS011;25219;52.244;21.006;2023-05-16T14:08:55;2.13;;;1.88;;
39540;SDS011;25219;52.244;21.006;2023-05-16T14:11:20;2.30;;;1.40;;
39540;SDS011;25219;52.244;21.006;2023-05-16T14:13:50;3.53;;;1.95;;
39540;SDS011;25219;52.244;21.006;2023-05-16T14:16:15;1.30;;;1.20;;
39540;SDS011;25219;52.244;21.006;2023-05-16T14:18:41;3.37;;;1.50;;
39540;SDS011;25219;52.244;21.006;2023-05-16T14:21:06;1.63;;;1.43;;
39540;SDS011;25219;52.244;21.006;2023-05-16T14:23:31;3.92;;;1.60;;
39540;SDS011;25219;52.244;21.006;2023-05-16T14:25:56;4.13;;;1.93;;
39540;SDS011;25219;52.244;21.006;2023-05-16T14:28:21;1.50;;;1.37;;
39540;SDS011;25219;52.244;21.006;2023-05-16T14:30:47;2.73;;;1.67;;
39540;SDS011;25219;52.244;21.006;2023-05-16T14:33:12;1.50;;;1.40;;
39540;SDS011;25219;52.244;21.006;2023-05-16T14:35:39;4.53;;;1.50;;